Nissho Maru — JD2650 — position and weather

sailwx.info

Track history (hours):
 
Tides and Currents Weather Stations Pressure Air Temp Water Temp Dewpoint Dewpoint Depression Visibility Wind Speed Wind Dir Waves Ship Positions

Nissho Maru

Last reported at 2016-Feb-06 06:31 UTC. Time now 2016-Feb-06 07:08 UTC.
Position N 35°36' E 140°05'.

Length 75 m.

Type: Cargo ship. MMSI: 431000572.

Date/timePositionNaut miles runAvg speedWind from/ knotsBaromVisibWave heightAir tempDewpointWater temp
2016-Feb-06 06:31N 35°36' E 140°05'0 0.0
2016-Feb-06 05:19N 35°36' E 140°05'0 0.0
2016-Feb-06 04:31N 35°36' E 140°05'0 0.0
2016-Feb-06 03:25N 35°36' E 140°05'0 0.0
2016-Feb-06 01:31N 35°36' E 140°05'0 0.0
2016-Feb-06 00:13N 35°36' E 140°05'0 0.0
2016-Feb-05 23:33N 35°36' E 140°05'3 2.5
2016-Feb-05 22:33N 35°34' E 140°03'0 0.0
2016-Feb-05 21:15N 35°34' E 140°03'0 0.0
2016-Feb-05 20:33N 35°34' E 140°03'0 0.0
2016-Feb-05 18:33N 35°34' E 140°03'0 0.0
2016-Feb-05 17:15N 35°34' E 140°03'0 0.0
2016-Feb-05 16:33N 35°34' E 140°03'0 0.0
2016-Feb-05 15:33N 35°34' E 140°03'0 0.0
2016-Feb-05 14:33N 35°34' E 140°03'0 0.0
2016-Feb-05 13:27N 35°34' E 140°03'0 0.0
2016-Feb-05 12:33N 35°34' E 140°03'7 7.2
2016-Feb-05 11:34N 35°31' E 139°55'1211.6
2016-Feb-05 10:34N 35°26' E 139°42'4 3.8
2016-Feb-05 09:34N 35°29' E 139°39'5 4.9
2016-Feb-05 08:34N 35°26' E 139°44'9 9.2
2016-Feb-05 07:33N 35°30' E 139°54'5 4.8
2016-Feb-05 06:33N 35°28' E 139°60'0 0.0
2016-Feb-05 05:30N 35°28' E 139°60'0 0.0
2016-Feb-05 04:30N 35°28' E 139°60'0 0.0
2016-Feb-05 03:30N 35°28' E 139°60'0 0.0
2016-Feb-05 02:24N 35°28' E 139°60'0 0.0
2016-Feb-05 01:12N 35°28' E 139°60'0 0.0
2016-Feb-05 00:27N 35°28' E 139°60'0 0.0
2016-Feb-04 23:33N 35°28' E 139°60'2 2.4
2016-Feb-04 22:33N 35°29' E 139°57'1 1.2
2016-Feb-04 21:33N 35°29' E 139°56'0 0.0
2016-Feb-04 20:33N 35°29' E 139°56'6 6.3
2016-Feb-04 19:34N 35°26' E 139°49'10 9.8
2016-Feb-04 18:34N 35°17' E 139°46'1110.7
2016-Feb-04 17:33N 35°06' E 139°45'1110.6
2016-Feb-04 16:33N 34°56' E 139°45'10 9.5
2016-Feb-04 15:27N 34°52' E 139°57'1010.9
2016-Feb-04 14:33N 34°57' E 140°07'2610.9
2016-Feb-04 12:12N 35°15' E 140°30'  
2016-Feb-02 02:08N 36°06' E 140°46'711.9
2016-Feb-02 01:33N 35°59' E 140°43'5 2.2
2016-Feb-01 23:17N 35°55' E 140°40'6 7.3
2016-Feb-01 22:31N 36°00' E 140°43'0 0.1
2016-Feb-01 21:31N 36°00' E 140°43'0 0.0
2016-Feb-01 20:28N 36°00' E 140°43'0 0.0
2016-Feb-01 19:28N 36°00' E 140°43'0 0.0
2016-Feb-01 18:28N 36°00' E 140°43'0 0.0
2016-Feb-01 17:25N 36°00' E 140°43'4 4.5
2016-Feb-01 16:29N 36°04' E 140°45'5 0.2
2016-Jan-31 09:33N 36°09' E 140°47'1212.3
2016-Jan-31 08:33N 35°57' E 140°43'3 0.4
2016-Jan-31 01:25N 35°58' E 140°46'2010.4
2016-Jan-30 23:31N 35°39' E 140°53'1111.4
2016-Jan-30 22:33N 35°30' E 140°45'3411.2
2016-Jan-30 19:33N 35°04' E 140°19'1111.0
2016-Jan-30 18:33N 34°58' E 140°08'261 9.6
2016-Jan-29 15:31N 33°57' E 135°00'1111.7
2016-Jan-29 14:33N 34°08' E 134°59'1211.5
2016-Jan-29 13:31N 34°20' E 134°59'1212.0
2016-Jan-29 12:33N 34°31' E 135°02'  
Track history (hours):
 
Tides and Currents Weather Stations Pressure Air Temp Water Temp Dewpoint Dewpoint Depression Visibility Wind Speed Wind Dir Waves Ship Positions

Nissho Maru

Last reported at 2016-Feb-06 06:31 UTC. Time now 2016-Feb-06 07:08 UTC.
Position N 35°36' E 140°05'.

Length 75 m.

Type: Cargo ship. MMSI: 431000572.

Date/timePositionNaut miles runAvg speedWind from/ knotsBaromVisibWave heightAir tempDewpointWater temp
2016-Feb-06 06:31N 35°36' E 140°05'0 0.0
2016-Feb-06 05:19N 35°36' E 140°05'0 0.0
2016-Feb-06 04:31N 35°36' E 140°05'0 0.0
2016-Feb-06 03:25N 35°36' E 140°05'0 0.0
2016-Feb-06 01:31N 35°36' E 140°05'0 0.0
2016-Feb-06 00:13N 35°36' E 140°05'0 0.0
2016-Feb-05 23:33N 35°36' E 140°05'3 2.5
2016-Feb-05 22:33N 35°34' E 140°03'0 0.0
2016-Feb-05 21:15N 35°34' E 140°03'0 0.0
2016-Feb-05 20:33N 35°34' E 140°03'0 0.0
2016-Feb-05 18:33N 35°34' E 140°03'0 0.0
2016-Feb-05 17:15N 35°34' E 140°03'0 0.0
2016-Feb-05 16:33N 35°34' E 140°03'0 0.0
2016-Feb-05 15:33N 35°34' E 140°03'0 0.0
2016-Feb-05 14:33N 35°34' E 140°03'0 0.0
2016-Feb-05 13:27N 35°34' E 140°03'0 0.0
2016-Feb-05 12:33N 35°34' E 140°03'7 7.2
2016-Feb-05 11:34N 35°31' E 139°55'1211.6
2016-Feb-05 10:34N 35°26' E 139°42'4 3.8
2016-Feb-05 09:34N 35°29' E 139°39'5 4.9
2016-Feb-05 08:34N 35°26' E 139°44'9 9.2
2016-Feb-05 07:33N 35°30' E 139°54'5 4.8
2016-Feb-05 06:33N 35°28' E 139°60'0 0.0
2016-Feb-05 05:30N 35°28' E 139°60'0 0.0
2016-Feb-05 04:30N 35°28' E 139°60'0 0.0
2016-Feb-05 03:30N 35°28' E 139°60'0 0.0
2016-Feb-05 02:24N 35°28' E 139°60'0 0.0
2016-Feb-05 01:12N 35°28' E 139°60'0 0.0
2016-Feb-05 00:27N 35°28' E 139°60'0 0.0
2016-Feb-04 23:33N 35°28' E 139°60'2 2.4
2016-Feb-04 22:33N 35°29' E 139°57'1 1.2
2016-Feb-04 21:33N 35°29' E 139°56'0 0.0
2016-Feb-04 20:33N 35°29' E 139°56'6 6.3
2016-Feb-04 19:34N 35°26' E 139°49'10 9.8
2016-Feb-04 18:34N 35°17' E 139°46'1110.7
2016-Feb-04 17:33N 35°06' E 139°45'1110.6
2016-Feb-04 16:33N 34°56' E 139°45'10 9.5
2016-Feb-04 15:27N 34°52' E 139°57'1010.9
2016-Feb-04 14:33N 34°57' E 140°07'2610.9
2016-Feb-04 12:12N 35°15' E 140°30'  
2016-Feb-02 02:08N 36°06' E 140°46'711.9
2016-Feb-02 01:33N 35°59' E 140°43'5 2.2
2016-Feb-01 23:17N 35°55' E 140°40'6 7.3
2016-Feb-01 22:31N 36°00' E 140°43'0 0.1
2016-Feb-01 21:31N 36°00' E 140°43'0 0.0
2016-Feb-01 20:28N 36°00' E 140°43'0 0.0
2016-Feb-01 19:28N 36°00' E 140°43'0 0.0
2016-Feb-01 18:28N 36°00' E 140°43'0 0.0
2016-Feb-01 17:25N 36°00' E 140°43'4 4.5
2016-Feb-01 16:29N 36°04' E 140°45'5 0.2
2016-Jan-31 09:33N 36°09' E 140°47'1212.3
2016-Jan-31 08:33N 35°57' E 140°43'3 0.4
2016-Jan-31 01:25N 35°58' E 140°46'2010.4
2016-Jan-30 23:31N 35°39' E 140°53'1111.4
2016-Jan-30 22:33N 35°30' E 140°45'3411.2
2016-Jan-30 19:33N 35°04' E 140°19'1111.0
2016-Jan-30 18:33N 34°58' E 140°08'261 9.6
2016-Jan-29 15:31N 33°57' E 135°00'1111.7
2016-Jan-29 14:33N 34°08' E 134°59'1211.5
2016-Jan-29 13:31N 34°20' E 134°59'1212.0
2016-Jan-29 12:33N 34°31' E 135°02'  

Dump ship's entire track history